Terminal Aerodrome Forecast
Issued by NWS

Home | Current Version | Previous Version | Text Only | Print | Product List | Glossary On
Versions: 1 2 3 4 5 6 7 8 9 10 11 12 13 14 15 16 17 18 19 20 21 22 23
000
FTUS43 KUNR 222000 AAA
TAFGCC
TAF AMD
KGCC 222016Z 2220/2318 13006KT P6SM SCT050 BKN100
     FM222200 11008KT P6SM -TSRA SCT050CB OVC100
     FM230300 11010KT P6SM -SHRA OVC015
     FM231200 19008KT P6SM SCT015 BKN025=

USA.gov is the U.S. government's official web portal to all federal, state and local government web resources and services.